Motion Scan — PCNB — position and weather

sailwx.info

Track history (hours):
 
Tides and Currents Weather Stations Pressure Air Temp Water Temp Dewpoint Dewpoint Depression Visibility Wind Speed Wind Dir Waves Ship Positions

Motion Scan

Last reported at 2017-Jan-20 19:20 UTC. Time now 2017-Jan-20 20:14 UTC.
Position N 26°06' W 080°07'.

Length 116 m; draft 5.3 m.

Type: Cargo ship. MMSI: 245523000.

Date/timePositionNaut miles runAvg speedWind from/ knotsBaromVisibWave heightAir tempDewpointWater temp
2017-Jan-20 19:20N 26°06' W 080°07'0 0.0
2017-Jan-20 18:32N 26°06' W 080°07'0 0.0
2017-Jan-20 17:32N 26°06' W 080°07'0 0.0
2017-Jan-20 16:32N 26°06' W 080°07'0 0.0
2017-Jan-20 15:26N 26°06' W 080°07'0 0.0
2017-Jan-20 14:26N 26°06' W 080°07'0 0.0
2017-Jan-20 13:25N 26°06' W 080°07'0 0.0
2017-Jan-20 12:29N 26°06' W 080°07'0 0.0
2017-Jan-20 11:32N 26°06' W 080°07'0 0.0
2017-Jan-20 10:32N 26°06' W 080°07'0 0.0
2017-Jan-20 09:29N 26°06' W 080°07'0 0.0
2017-Jan-20 08:32N 26°06' W 080°07'0 0.0
2017-Jan-20 07:31N 26°06' W 080°07'0 0.0
2017-Jan-20 06:31N 26°06' W 080°07'0 0.0
2017-Jan-20 05:31N 26°06' W 080°07'0 0.0
2017-Jan-20 04:32N 26°06' W 080°07'0 0.0
2017-Jan-20 03:31N 26°06' W 080°07'0 0.0
2017-Jan-20 02:31N 26°06' W 080°07'0 0.0
2017-Jan-20 01:23N 26°06' W 080°07'0 0.0
2017-Jan-20 00:23N 26°06' W 080°07'0 0.0
2017-Jan-19 23:25N 26°06' W 080°07'0 0.0
2017-Jan-19 22:25N 26°06' W 080°07'0 0.0
2017-Jan-19 21:25N 26°06' W 080°07'0 0.0
2017-Jan-19 20:29N 26°06' W 080°07'0 0.0
2017-Jan-19 19:28N 26°06' W 080°07'0 0.0
2017-Jan-19 18:28N 26°06' W 080°07'0 0.0
2017-Jan-19 17:22N 26°06' W 080°07'0 0.0
2017-Jan-19 16:31N 26°06' W 080°07'0 0.0
2017-Jan-19 15:31N 26°06' W 080°07'0 0.0
2017-Jan-19 14:31N 26°06' W 080°07'3 2.6
2017-Jan-19 13:33N 26°07' W 080°05'1 0.8
2017-Jan-19 12:33N 26°08' W 080°05'0 0.0
2017-Jan-19 11:33N 26°08' W 080°05'0 0.1
2017-Jan-19 10:33N 26°08' W 080°05'0 0.1
2017-Jan-19 09:33N 26°08' W 080°05'0 0.0
2017-Jan-19 08:33N 26°08' W 080°05'0 0.0
2017-Jan-19 07:33N 26°08' W 080°05'0 0.0
2017-Jan-19 06:33N 26°08' W 080°05'0 0.1
2017-Jan-19 05:30N 26°08' W 080°04'0 0.1
2017-Jan-19 04:33N 26°08' W 080°05'0 0.0
2017-Jan-19 03:33N 26°08' W 080°05'0 0.0
2017-Jan-19 02:27N 26°08' W 080°05'0 0.0
2017-Jan-19 01:30N 26°08' W 080°05'0 0.0
2017-Jan-19 00:29N 26°08' W 080°05'0 0.0
2017-Jan-18 23:33N 26°08' W 080°05'0 0.0
2017-Jan-18 22:33N 26°08' W 080°05'0 0.0
2017-Jan-18 21:33N 26°08' W 080°05'0 0.0
2017-Jan-18 20:33N 26°08' W 080°05'0 0.0
2017-Jan-18 19:32N 26°08' W 080°05'0 0.0
2017-Jan-18 18:32N 26°08' W 080°05'0 0.0
2017-Jan-18 17:32N 26°08' W 080°05'0 0.0
2017-Jan-18 16:32N 26°08' W 080°05'0 0.0
2017-Jan-18 15:27N 26°08' W 080°05'0 0.0
2017-Jan-18 14:30N 26°08' W 080°05'0 0.1
2017-Jan-18 13:33N 26°08' W 080°05'7 6.7
2017-Jan-18 12:33N 26°07' W 079°57'1211.7
2017-Jan-18 11:33N 26°09' W 079°44'1212.1
2017-Jan-18 10:33N 26°11' W 079°31'  
Track history (hours):
 
Tides and Currents Weather Stations Pressure Air Temp Water Temp Dewpoint Dewpoint Depression Visibility Wind Speed Wind Dir Waves Ship Positions

Motion Scan

Last reported at 2017-Jan-20 19:20 UTC. Time now 2017-Jan-20 20:14 UTC.
Position N 26°06' W 080°07'.

Length 116 m; draft 5.3 m.

Type: Cargo ship. MMSI: 245523000.

Date/timePositionNaut miles runAvg speedWind from/ knotsBaromVisibWave heightAir tempDewpointWater temp
2017-Jan-20 19:20N 26°06' W 080°07'0 0.0
2017-Jan-20 18:32N 26°06' W 080°07'0 0.0
2017-Jan-20 17:32N 26°06' W 080°07'0 0.0
2017-Jan-20 16:32N 26°06' W 080°07'0 0.0
2017-Jan-20 15:26N 26°06' W 080°07'0 0.0
2017-Jan-20 14:26N 26°06' W 080°07'0 0.0
2017-Jan-20 13:25N 26°06' W 080°07'0 0.0
2017-Jan-20 12:29N 26°06' W 080°07'0 0.0
2017-Jan-20 11:32N 26°06' W 080°07'0 0.0
2017-Jan-20 10:32N 26°06' W 080°07'0 0.0
2017-Jan-20 09:29N 26°06' W 080°07'0 0.0
2017-Jan-20 08:32N 26°06' W 080°07'0 0.0
2017-Jan-20 07:31N 26°06' W 080°07'0 0.0
2017-Jan-20 06:31N 26°06' W 080°07'0 0.0
2017-Jan-20 05:31N 26°06' W 080°07'0 0.0
2017-Jan-20 04:32N 26°06' W 080°07'0 0.0
2017-Jan-20 03:31N 26°06' W 080°07'0 0.0
2017-Jan-20 02:31N 26°06' W 080°07'0 0.0
2017-Jan-20 01:23N 26°06' W 080°07'0 0.0
2017-Jan-20 00:23N 26°06' W 080°07'0 0.0
2017-Jan-19 23:25N 26°06' W 080°07'0 0.0
2017-Jan-19 22:25N 26°06' W 080°07'0 0.0
2017-Jan-19 21:25N 26°06' W 080°07'0 0.0
2017-Jan-19 20:29N 26°06' W 080°07'0 0.0
2017-Jan-19 19:28N 26°06' W 080°07'0 0.0
2017-Jan-19 18:28N 26°06' W 080°07'0 0.0
2017-Jan-19 17:22N 26°06' W 080°07'0 0.0
2017-Jan-19 16:31N 26°06' W 080°07'0 0.0
2017-Jan-19 15:31N 26°06' W 080°07'0 0.0
2017-Jan-19 14:31N 26°06' W 080°07'3 2.6
2017-Jan-19 13:33N 26°07' W 080°05'1 0.8
2017-Jan-19 12:33N 26°08' W 080°05'0 0.0
2017-Jan-19 11:33N 26°08' W 080°05'0 0.1
2017-Jan-19 10:33N 26°08' W 080°05'0 0.1
2017-Jan-19 09:33N 26°08' W 080°05'0 0.0
2017-Jan-19 08:33N 26°08' W 080°05'0 0.0
2017-Jan-19 07:33N 26°08' W 080°05'0 0.0
2017-Jan-19 06:33N 26°08' W 080°05'0 0.1
2017-Jan-19 05:30N 26°08' W 080°04'0 0.1
2017-Jan-19 04:33N 26°08' W 080°05'0 0.0
2017-Jan-19 03:33N 26°08' W 080°05'0 0.0
2017-Jan-19 02:27N 26°08' W 080°05'0 0.0
2017-Jan-19 01:30N 26°08' W 080°05'0 0.0
2017-Jan-19 00:29N 26°08' W 080°05'0 0.0
2017-Jan-18 23:33N 26°08' W 080°05'0 0.0
2017-Jan-18 22:33N 26°08' W 080°05'0 0.0
2017-Jan-18 21:33N 26°08' W 080°05'0 0.0
2017-Jan-18 20:33N 26°08' W 080°05'0 0.0
2017-Jan-18 19:32N 26°08' W 080°05'0 0.0
2017-Jan-18 18:32N 26°08' W 080°05'0 0.0
2017-Jan-18 17:32N 26°08' W 080°05'0 0.0
2017-Jan-18 16:32N 26°08' W 080°05'0 0.0
2017-Jan-18 15:27N 26°08' W 080°05'0 0.0
2017-Jan-18 14:30N 26°08' W 080°05'0 0.1
2017-Jan-18 13:33N 26°08' W 080°05'7 6.7
2017-Jan-18 12:33N 26°07' W 079°57'1211.7
2017-Jan-18 11:33N 26°09' W 079°44'1212.1
2017-Jan-18 10:33N 26°11' W 079°31'  

Dump ship's entire track history